Hauptseite
METAR-TAF:

METAR-TAF

Flughäfen :

Passo della Cisa, Italien

Breite: 44-26N, Länge: 009-56E, Höhe: 1039 m

Beobachtung

Neuester Wetterbericht von vor 14 Stunden und 11 Minuten, um 16:55 UTC
Wind 12 kt aus Nord
Temperatur 6°C
Luftfeuchtigkeit 42%
Luftdruck 1007 hPa
Sichtweite 10 km oder mehr
Leicht bewölkt in der Höhe von 3000 ft

METAR: LIMT 191655Z 36012KT 9999 FEW030 06/M06 Q1007 RMK FEW MON LIB VAL NIL VIS MIN 9999

Zeit: 08:06 (07:06 UTC)


TAF: fehlend

Wetterbeobachtungen und Prognosen von mehr als 4000 Flughäfen (METAR und TAF Bericht).

Die verfügbaren Stationen werden durch gelbe und rote Markierungen auf der Karte dargestellt.

Führen Sie die Maus auf sie, um den Namen der Station zu sehen.

Darauf klicken, um die Beobachtung von Wetterbeobachtungen und Prognosen zu sehen.

Um die Karte zu ändern : klicken Sie auf den grünen Tasten mit einem schwarzen Kreuz Zum Vergrößern, auf den grünen Button mit einem Gedankenstrich zu verkleinern, oder auf die grünen Pfeile für benachbarte Karten.


METAR-TAF: